sensor_id;sensor_type;location;lat;lon;timestamp;P1;durP1;ratioP1;P2;durP2;ratioP2
11531;SDS011;5822;51.000;5.874;2022-07-21T00:00:02;26.50;;;24.00;;
11531;SDS011;5822;51.000;5.874;2022-07-21T00:02:32;26.58;;;24.05;;
11531;SDS011;5822;51.000;5.874;2022-07-21T00:04:58;27.23;;;24.33;;
11531;SDS011;5822;51.000;5.874;2022-07-21T00:07:24;26.73;;;24.27;;
11531;SDS011;5822;51.000;5.874;2022-07-21T00:09:49;27.42;;;24.73;;
11531;SDS011;5822;51.000;5.874;2022-07-21T00:12:15;30.98;;;28.17;;
11531;SDS011;5822;51.000;5.874;2022-07-21T00:14:40;30.73;;;27.65;;
11531;SDS011;5822;51.000;5.874;2022-07-21T00:17:06;30.17;;;27.38;;
11531;SDS011;5822;51.000;5.874;2022-07-21T00:19:32;28.70;;;26.10;;
11531;SDS011;5822;51.000;5.874;2022-07-21T00:21:58;30.08;;;27.40;;
11531;SDS011;5822;51.000;5.874;2022-07-21T00:24:23;29.00;;;26.30;;
11531;SDS011;5822;51.000;5.874;2022-07-21T00:26:49;29.00;;;26.30;;
11531;SDS011;5822;51.000;5.874;2022-07-21T00:29:15;30.20;;;27.50;;
11531;SDS011;5822;51.000;5.874;2022-07-21T00:31:40;31.63;;;28.83;;
11531;SDS011;5822;51.000;5.874;2022-07-21T00:34:06;32.85;;;29.80;;
11531;SDS011;5822;51.000;5.874;2022-07-21T00:36:31;31.48;;;28.58;;
11531;SDS011;5822;51.000;5.874;2022-07-21T00:38:57;30.30;;;27.20;;
11531;SDS011;5822;51.000;5.874;2022-07-21T00:41:24;31.27;;;28.40;;
11531;SDS011;5822;51.000;5.874;2022-07-21T00:43:50;31.30;;;28.30;;
11531;SDS011;5822;51.000;5.874;2022-07-21T00:46:19;31.23;;;27.92;;
11531;SDS011;5822;51.000;5.874;2022-07-21T00:48:45;35.63;;;28.63;;
11531;SDS011;5822;51.000;5.874;2022-07-21T00:51:11;32.90;;;29.50;;
11531;SDS011;5822;51.000;5.874;2022-07-21T00:53:36;33.97;;;30.97;;
11531;SDS011;5822;51.000;5.874;2022-07-21T00:56:02;32.93;;;30.03;;
11531;SDS011;5822;51.000;5.874;2022-07-21T00:58:28;33.05;;;30.15;;
11531;SDS011;5822;51.000;5.874;2022-07-21T01:00:53;30.80;;;27.90;;
11531;SDS011;5822;51.000;5.874;2022-07-21T01:03:19;30.17;;;27.37;;
11531;SDS011;5822;51.000;5.874;2022-07-21T01:05:45;29.93;;;27.10;;
11531;SDS011;5822;51.000;5.874;2022-07-21T01:08:11;31.08;;;27.52;;
11531;SDS011;5822;51.000;5.874;2022-07-21T01:10:38;38.63;;;27.93;;
11531;SDS011;5822;51.000;5.874;2022-07-21T01:13:05;29.30;;;26.70;;
11531;SDS011;5822;51.000;5.874;2022-07-21T01:15:31;30.10;;;27.35;;
11531;SDS011;5822;51.000;5.874;2022-07-21T01:17:57;29.83;;;27.13;;
11531;SDS011;5822;51.000;5.874;2022-07-21T01:20:23;30.67;;;27.87;;
11531;SDS011;5822;51.000;5.874;2022-07-21T01:22:50;29.30;;;26.67;;
11531;SDS011;5822;51.000;5.874;2022-07-21T01:25:19;28.80;;;26.20;;
11531;SDS011;5822;51.000;5.874;2022-07-21T01:27:45;28.23;;;25.63;;
11531;SDS011;5822;51.000;5.874;2022-07-21T01:30:11;29.02;;;26.45;;
11531;SDS011;5822;51.000;5.874;2022-07-21T01:32:37;28.98;;;26.38;;
11531;SDS011;5822;51.000;5.874;2022-07-21T01:35:04;28.70;;;26.10;;
11531;SDS011;5822;51.000;5.874;2022-07-21T01:37:33;29.52;;;26.63;;
11531;SDS011;5822;51.000;5.874;2022-07-21T01:40:00;29.43;;;26.80;;
11531;SDS011;5822;51.000;5.874;2022-07-21T01:42:45;29.53;;;26.83;;
11531;SDS011;5822;51.000;5.874;2022-07-21T01:45:10;28.70;;;26.10;;
11531;SDS011;5822;51.000;5.874;2022-07-21T01:47:36;29.00;;;26.37;;
11531;SDS011;5822;51.000;5.874;2022-07-21T01:50:02;28.50;;;25.60;;
11531;SDS011;5822;51.000;5.874;2022-07-21T01:52:28;27.97;;;25.47;;
11531;SDS011;5822;51.000;5.874;2022-07-21T01:54:54;27.53;;;25.07;;
11531;SDS011;5822;51.000;5.874;2022-07-21T01:57:19;29.30;;;26.80;;
11531;SDS011;5822;51.000;5.874;2022-07-21T01:59:45;28.47;;;25.87;;
11531;SDS011;5822;51.000;5.874;2022-07-21T02:02:10;29.93;;;27.13;;
11531;SDS011;5822;51.000;5.874;2022-07-21T02:04:36;29.10;;;26.50;;
11531;SDS011;5822;51.000;5.874;2022-07-21T02:07:02;27.98;;;25.48;;
11531;SDS011;5822;51.000;5.874;2022-07-21T02:09:28;28.33;;;25.83;;
11531;SDS011;5822;51.000;5.874;2022-07-21T02:11:54;28.50;;;26.00;;
11531;SDS011;5822;51.000;5.874;2022-07-21T02:14:20;28.23;;;25.63;;
11531;SDS011;5822;51.000;5.874;2022-07-21T02:16:46;29.17;;;26.57;;
11531;SDS011;5822;51.000;5.874;2022-07-21T02:19:11;29.27;;;26.20;;
11531;SDS011;5822;51.000;5.874;2022-07-21T02:21:37;29.07;;;26.27;;
11531;SDS011;5822;51.000;5.874;2022-07-21T02:24:03;29.73;;;27.03;;
11531;SDS011;5822;51.000;5.874;2022-07-21T02:26:29;30.23;;;27.53;;
11531;SDS011;5822;51.000;5.874;2022-07-21T02:28:54;29.20;;;26.53;;
11531;SDS011;5822;51.000;5.874;2022-07-21T02:31:20;30.33;;;27.13;;
11531;SDS011;5822;51.000;5.874;2022-07-21T02:33:45;29.50;;;26.77;;
11531;SDS011;5822;51.000;5.874;2022-07-21T02:36:11;30.83;;;26.50;;
11531;SDS011;5822;51.000;5.874;2022-07-21T02:38:37;30.07;;;27.23;;
11531;SDS011;5822;51.000;5.874;2022-07-21T02:41:02;29.60;;;26.70;;
11531;SDS011;5822;51.000;5.874;2022-07-21T02:43:28;29.87;;;27.20;;
11531;SDS011;5822;51.000;5.874;2022-07-21T02:45:54;29.60;;;27.00;;
11531;SDS011;5822;51.000;5.874;2022-07-21T02:48:19;30.40;;;27.70;;
11531;SDS011;5822;51.000;5.874;2022-07-21T02:50:45;29.57;;;26.97;;
11531;SDS011;5822;51.000;5.874;2022-07-21T02:53:18;28.90;;;26.30;;
11531;SDS011;5822;51.000;5.874;2022-07-21T02:55:45;28.60;;;26.10;;
11531;SDS011;5822;51.000;5.874;2022-07-21T03:00:49;29.70;;;27.00;;
11531;SDS011;5822;51.000;5.874;2022-07-21T03:03:15;29.50;;;26.80;;
11531;SDS011;5822;51.000;5.874;2022-07-21T03:05:41;29.90;;;27.20;;
11531;SDS011;5822;51.000;5.874;2022-07-21T03:08:08;28.40;;;25.87;;
11531;SDS011;5822;51.000;5.874;2022-07-21T03:10:34;28.63;;;25.93;;
11531;SDS011;5822;51.000;5.874;2022-07-21T03:13:01;28.57;;;25.67;;
11531;SDS011;5822;51.000;5.874;2022-07-21T03:15:27;28.67;;;26.17;;
11531;SDS011;5822;51.000;5.874;2022-07-21T03:17:53;30.67;;;27.93;;
11531;SDS011;5822;51.000;5.874;2022-07-21T03:20:19;30.80;;;28.10;;
11531;SDS011;5822;51.000;5.874;2022-07-21T03:22:48;30.20;;;27.50;;
11531;SDS011;5822;51.000;5.874;2022-07-21T03:25:13;29.93;;;27.33;;
11531;SDS011;5822;51.000;5.874;2022-07-21T03:27:39;30.47;;;27.27;;
11531;SDS011;5822;51.000;5.874;2022-07-21T03:30:06;29.67;;;27.00;;
11531;SDS011;5822;51.000;5.874;2022-07-21T03:32:32;29.23;;;26.63;;
11531;SDS011;5822;51.000;5.874;2022-07-21T03:34:58;29.30;;;26.80;;
11531;SDS011;5822;51.000;5.874;2022-07-21T03:37:24;31.17;;;28.20;;
11531;SDS011;5822;51.000;5.874;2022-07-21T03:39:51;30.17;;;27.47;;
11531;SDS011;5822;51.000;5.874;2022-07-21T03:42:16;30.03;;;27.37;;
11531;SDS011;5822;51.000;5.874;2022-07-21T03:44:42;30.37;;;27.67;;
11531;SDS011;5822;51.000;5.874;2022-07-21T03:47:08;29.40;;;26.80;;
11531;SDS011;5822;51.000;5.874;2022-07-21T03:49:33;29.83;;;27.30;;
11531;SDS011;5822;51.000;5.874;2022-07-21T03:51:59;29.73;;;27.13;;
11531;SDS011;5822;51.000;5.874;2022-07-21T03:54:25;30.90;;;28.00;;
11531;SDS011;5822;51.000;5.874;2022-07-21T03:56:50;29.57;;;26.90;;
11531;SDS011;5822;51.000;5.874;2022-07-21T03:59:16;30.73;;;27.73;;
11531;SDS011;5822;51.000;5.874;2022-07-21T04:01:42;29.87;;;27.20;;
11531;SDS011;5822;51.000;5.874;2022-07-21T04:04:08;30.63;;;27.73;;
11531;SDS011;5822;51.000;5.874;2022-07-21T04:06:33;30.23;;;27.27;;
11531;SDS011;5822;51.000;5.874;2022-07-21T04:08:59;30.73;;;27.87;;
11531;SDS011;5822;51.000;5.874;2022-07-21T04:11:24;32.53;;;29.43;;
11531;SDS011;5822;51.000;5.874;2022-07-21T04:13:50;30.17;;;27.53;;
11531;SDS011;5822;51.000;5.874;2022-07-21T04:16:16;31.80;;;29.00;;
11531;SDS011;5822;51.000;5.874;2022-07-21T04:18:41;32.87;;;29.93;;
11531;SDS011;5822;51.000;5.874;2022-07-21T04:21:07;31.43;;;28.60;;
11531;SDS011;5822;51.000;5.874;2022-07-21T04:23:33;32.03;;;29.03;;
11531;SDS011;5822;51.000;5.874;2022-07-21T04:25:58;31.33;;;28.43;;
11531;SDS011;5822;51.000;5.874;2022-07-21T04:28:24;32.40;;;29.43;;
11531;SDS011;5822;51.000;5.874;2022-07-21T04:30:49;31.93;;;28.83;;
11531;SDS011;5822;51.000;5.874;2022-07-21T04:33:15;32.13;;;29.23;;
11531;SDS011;5822;51.000;5.874;2022-07-21T04:35:41;31.87;;;28.97;;
11531;SDS011;5822;51.000;5.874;2022-07-21T04:38:08;31.10;;;28.20;;
11531;SDS011;5822;51.000;5.874;2022-07-21T04:40:34;32.23;;;29.17;;
11531;SDS011;5822;51.000;5.874;2022-07-21T04:43:00;32.33;;;29.53;;
11531;SDS011;5822;51.000;5.874;2022-07-21T04:45:26;31.87;;;29.17;;
11531;SDS011;5822;51.000;5.874;2022-07-21T04:47:52;31.50;;;28.70;;
11531;SDS011;5822;51.000;5.874;2022-07-21T04:50:20;32.50;;;29.50;;
11531;SDS011;5822;51.000;5.874;2022-07-21T04:52:48;33.03;;;30.13;;
11531;SDS011;5822;51.000;5.874;2022-07-21T04:55:14;32.17;;;29.30;;
11531;SDS011;5822;51.000;5.874;2022-07-21T04:57:42;33.37;;;30.37;;
11531;SDS011;5822;51.000;5.874;2022-07-21T05:00:11;31.43;;;28.63;;
11531;SDS011;5822;51.000;5.874;2022-07-21T05:02:40;32.77;;;29.63;;
11531;SDS011;5822;51.000;5.874;2022-07-21T05:05:07;31.23;;;28.43;;
11531;SDS011;5822;51.000;5.874;2022-07-21T05:07:33;31.50;;;28.60;;
11531;SDS011;5822;51.000;5.874;2022-07-21T05:09:59;32.40;;;29.57;;
11531;SDS011;5822;51.000;5.874;2022-07-21T05:12:28;31.33;;;28.43;;
11531;SDS011;5822;51.000;5.874;2022-07-21T05:14:53;31.13;;;28.33;;
11531;SDS011;5822;51.000;5.874;2022-07-21T05:17:19;30.70;;;28.00;;
11531;SDS011;5822;51.000;5.874;2022-07-21T05:19:44;31.50;;;28.60;;
11531;SDS011;5822;51.000;5.874;2022-07-21T05:22:14;30.30;;;27.37;;
11531;SDS011;5822;51.000;5.874;2022-07-21T05:24:41;30.60;;;27.80;;
11531;SDS011;5822;51.000;5.874;2022-07-21T05:27:06;30.20;;;27.50;;
11531;SDS011;5822;51.000;5.874;2022-07-21T05:29:32;30.03;;;27.33;;
11531;SDS011;5822;51.000;5.874;2022-07-21T05:31:58;31.40;;;28.20;;
11531;SDS011;5822;51.000;5.874;2022-07-21T05:34:24;30.83;;;27.87;;
11531;SDS011;5822;51.000;5.874;2022-07-21T05:36:49;30.87;;;28.17;;
11531;SDS011;5822;51.000;5.874;2022-07-21T05:39:15;31.70;;;28.83;;
11531;SDS011;5822;51.000;5.874;2022-07-21T05:41:40;31.23;;;28.63;;
11531;SDS011;5822;51.000;5.874;2022-07-21T05:44:06;29.47;;;26.83;;
11531;SDS011;5822;51.000;5.874;2022-07-21T05:46:32;29.47;;;26.67;;
11531;SDS011;5822;51.000;5.874;2022-07-21T05:48:57;29.40;;;26.57;;
11531;SDS011;5822;51.000;5.874;2022-07-21T05:51:23;40.87;;;28.50;;
11531;SDS011;5822;51.000;5.874;2022-07-21T05:53:48;31.90;;;29.00;;
11531;SDS011;5822;51.000;5.874;2022-07-21T05:56:14;29.38;;;26.77;;
11531;SDS011;5822;51.000;5.874;2022-07-21T05:58:39;29.33;;;26.53;;
11531;SDS011;5822;51.000;5.874;2022-07-21T06:01:05;30.97;;;28.10;;
11531;SDS011;5822;51.000;5.874;2022-07-21T06:03:35;31.50;;;28.67;;
11531;SDS011;5822;51.000;5.874;2022-07-21T06:06:01;31.90;;;28.80;;
11531;SDS011;5822;51.000;5.874;2022-07-21T06:08:27;33.13;;;29.63;;
11531;SDS011;5822;51.000;5.874;2022-07-21T06:10:53;31.63;;;28.60;;
11531;SDS011;5822;51.000;5.874;2022-07-21T06:13:18;31.50;;;28.70;;
11531;SDS011;5822;51.000;5.874;2022-07-21T06:15:44;31.37;;;28.60;;
11531;SDS011;5822;51.000;5.874;2022-07-21T06:18:09;31.60;;;28.83;;
11531;SDS011;5822;51.000;5.874;2022-07-21T06:20:35;30.30;;;27.77;;
11531;SDS011;5822;51.000;5.874;2022-07-21T06:23:01;31.43;;;28.73;;
11531;SDS011;5822;51.000;5.874;2022-07-21T06:25:26;30.97;;;28.23;;
11531;SDS011;5822;51.000;5.874;2022-07-21T06:27:52;30.80;;;28.10;;
11531;SDS011;5822;51.000;5.874;2022-07-21T06:30:17;29.70;;;27.10;;
11531;SDS011;5822;51.000;5.874;2022-07-21T06:32:43;30.93;;;28.13;;
11531;SDS011;5822;51.000;5.874;2022-07-21T06:35:08;31.27;;;28.27;;
11531;SDS011;5822;51.000;5.874;2022-07-21T06:37:34;31.90;;;28.63;;
11531;SDS011;5822;51.000;5.874;2022-07-21T06:40:00;31.63;;;28.53;;
11531;SDS011;5822;51.000;5.874;2022-07-21T06:42:25;31.07;;;28.23;;
11531;SDS011;5822;51.000;5.874;2022-07-21T06:44:51;31.80;;;28.90;;
11531;SDS011;5822;51.000;5.874;2022-07-21T06:47:17;31.77;;;28.63;;
11531;SDS011;5822;51.000;5.874;2022-07-21T06:49:42;32.57;;;29.67;;
11531;SDS011;5822;51.000;5.874;2022-07-21T06:52:08;31.93;;;29.23;;
11531;SDS011;5822;51.000;5.874;2022-07-21T06:54:34;30.80;;;28.13;;
11531;SDS011;5822;51.000;5.874;2022-07-21T06:56:59;30.70;;;28.00;;
11531;SDS011;5822;51.000;5.874;2022-07-21T06:59:25;32.13;;;29.23;;
11531;SDS011;5822;51.000;5.874;2022-07-21T07:01:50;31.70;;;28.77;;
11531;SDS011;5822;51.000;5.874;2022-07-21T07:04:16;31.73;;;28.93;;
11531;SDS011;5822;51.000;5.874;2022-07-21T07:06:42;31.17;;;28.40;;
11531;SDS011;5822;51.000;5.874;2022-07-21T07:09:07;32.80;;;29.90;;
11531;SDS011;5822;51.000;5.874;2022-07-21T07:11:33;31.77;;;28.80;;
11531;SDS011;5822;51.000;5.874;2022-07-21T07:13:59;30.83;;;28.07;;
11531;SDS011;5822;51.000;5.874;2022-07-21T07:16:25;29.50;;;26.80;;
11531;SDS011;5822;51.000;5.874;2022-07-21T07:18:51;29.10;;;26.50;;
11531;SDS011;5822;51.000;5.874;2022-07-21T07:21:17;30.53;;;27.83;;
11531;SDS011;5822;51.000;5.874;2022-07-21T07:23:42;29.30;;;26.50;;
11531;SDS011;5822;51.000;5.874;2022-07-21T07:26:08;29.90;;;27.17;;
11531;SDS011;5822;51.000;5.874;2022-07-21T07:28:34;31.00;;;28.07;;
11531;SDS011;5822;51.000;5.874;2022-07-21T07:30:59;30.90;;;27.97;;
11531;SDS011;5822;51.000;5.874;2022-07-21T07:33:25;30.60;;;27.80;;
11531;SDS011;5822;51.000;5.874;2022-07-21T07:35:52;30.37;;;27.67;;
11531;SDS011;5822;51.000;5.874;2022-07-21T07:38:18;29.97;;;27.23;;
11531;SDS011;5822;51.000;5.874;2022-07-21T07:40:43;30.13;;;27.33;;
11531;SDS011;5822;51.000;5.874;2022-07-21T07:43:09;31.83;;;28.77;;
11531;SDS011;5822;51.000;5.874;2022-07-21T07:45:35;31.13;;;27.97;;
11531;SDS011;5822;51.000;5.874;2022-07-21T07:48:01;31.07;;;28.30;;
11531;SDS011;5822;51.000;5.874;2022-07-21T07:50:27;29.57;;;26.97;;
11531;SDS011;5822;51.000;5.874;2022-07-21T07:52:56;29.63;;;27.13;;
11531;SDS011;5822;51.000;5.874;2022-07-21T07:55:22;30.17;;;27.47;;
11531;SDS011;5822;51.000;5.874;2022-07-21T07:57:47;31.17;;;28.27;;
11531;SDS011;5822;51.000;5.874;2022-07-21T08:00:17;30.57;;;27.80;;
11531;SDS011;5822;51.000;5.874;2022-07-21T08:02:43;29.70;;;27.13;;
11531;SDS011;5822;51.000;5.874;2022-07-21T08:05:10;29.50;;;26.70;;
11531;SDS011;5822;51.000;5.874;2022-07-21T08:07:36;28.70;;;26.10;;
11531;SDS011;5822;51.000;5.874;2022-07-21T08:10:05;29.20;;;26.55;;
11531;SDS011;5822;51.000;5.874;2022-07-21T08:12:31;30.33;;;27.35;;
11531;SDS011;5822;51.000;5.874;2022-07-21T08:14:57;28.93;;;26.37;;
11531;SDS011;5822;51.000;5.874;2022-07-21T08:17:22;30.40;;;27.70;;
11531;SDS011;5822;51.000;5.874;2022-07-21T08:19:48;28.60;;;26.10;;
11531;SDS011;5822;51.000;5.874;2022-07-21T08:22:14;28.88;;;26.27;;
11531;SDS011;5822;51.000;5.874;2022-07-21T08:24:39;29.52;;;26.67;;
11531;SDS011;5822;51.000;5.874;2022-07-21T08:27:05;28.90;;;26.33;;
11531;SDS011;5822;51.000;5.874;2022-07-21T08:29:30;30.88;;;27.73;;
11531;SDS011;5822;51.000;5.874;2022-07-21T08:31:56;30.77;;;27.75;;
11531;SDS011;5822;51.000;5.874;2022-07-21T08:34:22;31.67;;;28.48;;
11531;SDS011;5822;51.000;5.874;2022-07-21T08:36:47;29.93;;;27.23;;
11531;SDS011;5822;51.000;5.874;2022-07-21T08:39:13;35.00;;;29.77;;
11531;SDS011;5822;51.000;5.874;2022-07-21T08:41:39;36.27;;;28.47;;
11531;SDS011;5822;51.000;5.874;2022-07-21T08:44:05;32.25;;;28.77;;
11531;SDS011;5822;51.000;5.874;2022-07-21T08:46:33;34.28;;;31.17;;
11531;SDS011;5822;51.000;5.874;2022-07-21T08:49:00;31.45;;;28.58;;
11531;SDS011;5822;51.000;5.874;2022-07-21T08:51:27;33.70;;;30.30;;
11531;SDS011;5822;51.000;5.874;2022-07-21T08:53:57;32.22;;;29.33;;
11531;SDS011;5822;51.000;5.874;2022-07-21T08:56:22;32.87;;;29.73;;
11531;SDS011;5822;51.000;5.874;2022-07-21T08:58:48;33.15;;;30.13;;
11531;SDS011;5822;51.000;5.874;2022-07-21T09:01:14;31.30;;;28.60;;
11531;SDS011;5822;51.000;5.874;2022-07-21T09:03:39;34.30;;;31.02;;
11531;SDS011;5822;51.000;5.874;2022-07-21T09:06:11;34.83;;;31.58;;
11531;SDS011;5822;51.000;5.874;2022-07-21T09:08:48;35.13;;;31.77;;
11531;SDS011;5822;51.000;5.874;2022-07-21T09:13:43;34.40;;;31.27;;
11531;SDS011;5822;51.000;5.874;2022-07-21T09:16:10;33.67;;;30.57;;
11531;SDS011;5822;51.000;5.874;2022-07-21T09:18:49;34.40;;;31.23;;
11531;SDS011;5822;51.000;5.874;2022-07-21T09:21:17;34.80;;;31.57;;
11531;SDS011;5822;51.000;5.874;2022-07-21T09:23:43;34.87;;;31.67;;
11531;SDS011;5822;51.000;5.874;2022-07-21T09:26:09;36.03;;;32.60;;
11531;SDS011;5822;51.000;5.874;2022-07-21T09:28:35;35.37;;;32.17;;
11531;SDS011;5822;51.000;5.874;2022-07-21T09:31:05;34.30;;;31.13;;
11531;SDS011;5822;51.000;5.874;2022-07-21T09:33:33;35.60;;;31.83;;
11531;SDS011;5822;51.000;5.874;2022-07-21T09:38:41;36.10;;;32.77;;
11531;SDS011;5822;51.000;5.874;2022-07-21T09:41:20;35.93;;;32.40;;
11531;SDS011;5822;51.000;5.874;2022-07-21T09:43:48;37.40;;;34.07;;
11531;SDS011;5822;51.000;5.874;2022-07-21T09:46:19;36.30;;;32.93;;
11531;SDS011;5822;51.000;5.874;2022-07-21T09:48:50;38.80;;;32.77;;
11531;SDS011;5822;51.000;5.874;2022-07-21T09:56:30;37.23;;;33.83;;
11531;SDS011;5822;51.000;5.874;2022-07-21T09:58:57;41.67;;;38.17;;
11531;SDS011;5822;51.000;5.874;2022-07-21T10:01:25;37.03;;;33.03;;
11531;SDS011;5822;51.000;5.874;2022-07-21T10:03:51;36.43;;;32.87;;
11531;SDS011;5822;51.000;5.874;2022-07-21T10:06:19;35.13;;;32.03;;
11531;SDS011;5822;51.000;5.874;2022-07-21T10:08:48;33.57;;;30.57;;
11531;SDS011;5822;51.000;5.874;2022-07-21T10:11:15;34.07;;;31.13;;
11531;SDS011;5822;51.000;5.874;2022-07-21T10:13:41;32.43;;;29.60;;
11531;SDS011;5822;51.000;5.874;2022-07-21T10:16:10;31.67;;;28.87;;
11531;SDS011;5822;51.000;5.874;2022-07-21T10:18:45;34.30;;;31.43;;
11531;SDS011;5822;51.000;5.874;2022-07-21T10:21:32;31.17;;;28.37;;
11531;SDS011;5822;51.000;5.874;2022-07-21T10:24:03;30.23;;;27.63;;
11531;SDS011;5822;51.000;5.874;2022-07-21T10:26:30;30.03;;;27.53;;
11531;SDS011;5822;51.000;5.874;2022-07-21T10:28:56;36.53;;;28.80;;
11531;SDS011;5822;51.000;5.874;2022-07-21T10:31:22;30.57;;;27.90;;
11531;SDS011;5822;51.000;5.874;2022-07-21T10:36:48;30.30;;;27.70;;
11531;SDS011;5822;51.000;5.874;2022-07-21T10:41:37;31.97;;;29.10;;
11531;SDS011;5822;51.000;5.874;2022-07-21T10:44:37;31.87;;;28.97;;
11531;SDS011;5822;51.000;5.874;2022-07-21T10:49:40;31.23;;;28.43;;
11531;SDS011;5822;51.000;5.874;2022-07-21T10:57:35;33.00;;;30.20;;
11531;SDS011;5822;51.000;5.874;2022-07-21T11:02:48;34.33;;;31.23;;
11531;SDS011;5822;51.000;5.874;2022-07-21T11:05:19;32.50;;;29.47;;
11531;SDS011;5822;51.000;5.874;2022-07-21T11:10:39;33.53;;;30.53;;
11531;SDS011;5822;51.000;5.874;2022-07-21T11:13:06;33.60;;;30.57;;
11531;SDS011;5822;51.000;5.874;2022-07-21T11:18:21;32.03;;;29.23;;
11531;SDS011;5822;51.000;5.874;2022-07-21T11:21:08;32.13;;;29.33;;
11531;SDS011;5822;51.000;5.874;2022-07-21T11:23:39;32.73;;;29.87;;
11531;SDS011;5822;51.000;5.874;2022-07-21T11:26:10;33.97;;;30.97;;
11531;SDS011;5822;51.000;5.874;2022-07-21T11:28:39;32.07;;;29.17;;
11531;SDS011;5822;51.000;5.874;2022-07-21T11:31:12;33.67;;;30.67;;
11531;SDS011;5822;51.000;5.874;2022-07-21T11:33:43;32.23;;;29.13;;
11531;SDS011;5822;51.000;5.874;2022-07-21T11:36:10;32.27;;;28.97;;
11531;SDS011;5822;51.000;5.874;2022-07-21T11:41:29;31.17;;;28.03;;
11531;SDS011;5822;51.000;5.874;2022-07-21T11:43:55;30.40;;;27.63;;
11531;SDS011;5822;51.000;5.874;2022-07-21T11:46:20;28.57;;;26.10;;
11531;SDS011;5822;51.000;5.874;2022-07-21T11:48:46;27.43;;;24.77;;
11531;SDS011;5822;51.000;5.874;2022-07-21T11:51:12;25.23;;;23.03;;
11531;SDS011;5822;51.000;5.874;2022-07-21T11:53:44;25.63;;;23.17;;
11531;SDS011;5822;51.000;5.874;2022-07-21T11:56:14;25.77;;;23.47;;
11531;SDS011;5822;51.000;5.874;2022-07-21T11:58:41;26.07;;;23.77;;
11531;SDS011;5822;51.000;5.874;2022-07-21T12:01:08;26.30;;;24.10;;
11531;SDS011;5822;51.000;5.874;2022-07-21T12:03:34;26.60;;;24.20;;
11531;SDS011;5822;51.000;5.874;2022-07-21T12:06:11;28.13;;;25.63;;
11531;SDS011;5822;51.000;5.874;2022-07-21T12:08:38;28.30;;;25.90;;
11531;SDS011;5822;51.000;5.874;2022-07-21T12:11:07;29.73;;;27.20;;
11531;SDS011;5822;51.000;5.874;2022-07-21T12:16:18;30.20;;;27.37;;
11531;SDS011;5822;51.000;5.874;2022-07-21T12:18:43;30.00;;;27.20;;
11531;SDS011;5822;51.000;5.874;2022-07-21T12:21:09;28.90;;;26.43;;
11531;SDS011;5822;51.000;5.874;2022-07-21T12:23:35;29.10;;;26.43;;
11531;SDS011;5822;51.000;5.874;2022-07-21T12:26:02;28.40;;;25.80;;
11531;SDS011;5822;51.000;5.874;2022-07-21T12:31:19;28.27;;;25.87;;
11531;SDS011;5822;51.000;5.874;2022-07-21T12:33:45;28.00;;;25.53;;
11531;SDS011;5822;51.000;5.874;2022-07-21T12:36:12;29.60;;;26.20;;
11531;SDS011;5822;51.000;5.874;2022-07-21T12:38:38;30.23;;;26.80;;
11531;SDS011;5822;51.000;5.874;2022-07-21T12:41:11;28.57;;;26.17;;
11531;SDS011;5822;51.000;5.874;2022-07-21T12:43:42;28.90;;;26.30;;
11531;SDS011;5822;51.000;5.874;2022-07-21T12:46:12;28.67;;;26.00;;
11531;SDS011;5822;51.000;5.874;2022-07-21T12:48:41;29.63;;;26.93;;
11531;SDS011;5822;51.000;5.874;2022-07-21T12:53:39;32.90;;;30.27;;
11531;SDS011;5822;51.000;5.874;2022-07-21T12:56:07;33.07;;;30.37;;
11531;SDS011;5822;51.000;5.874;2022-07-21T12:58:33;31.43;;;28.57;;
11531;SDS011;5822;51.000;5.874;2022-07-21T13:01:00;35.87;;;32.97;;
11531;SDS011;5822;51.000;5.874;2022-07-21T13:03:27;32.20;;;29.30;;
11531;SDS011;5822;51.000;5.874;2022-07-21T13:05:54;29.30;;;26.80;;
11531;SDS011;5822;51.000;5.874;2022-07-21T13:08:19;29.77;;;27.17;;
11531;SDS011;5822;51.000;5.874;2022-07-21T13:10:45;28.13;;;25.73;;
11531;SDS011;5822;51.000;5.874;2022-07-21T13:13:11;28.20;;;25.50;;
11531;SDS011;5822;51.000;5.874;2022-07-21T13:15:36;28.73;;;26.07;;
11531;SDS011;5822;51.000;5.874;2022-07-21T13:18:02;28.10;;;25.70;;
11531;SDS011;5822;51.000;5.874;2022-07-21T13:20:28;27.87;;;25.47;;
11531;SDS011;5822;51.000;5.874;2022-07-21T13:22:53;26.90;;;24.50;;
11531;SDS011;5822;51.000;5.874;2022-07-21T13:25:19;27.53;;;25.23;;
11531;SDS011;5822;51.000;5.874;2022-07-21T13:27:45;28.47;;;25.63;;
11531;SDS011;5822;51.000;5.874;2022-07-21T13:30:10;29.00;;;25.93;;
11531;SDS011;5822;51.000;5.874;2022-07-21T13:32:37;27.87;;;25.27;;
11531;SDS011;5822;51.000;5.874;2022-07-21T13:35:03;27.37;;;25.00;;
11531;SDS011;5822;51.000;5.874;2022-07-21T13:37:30;26.70;;;24.33;;
11531;SDS011;5822;51.000;5.874;2022-07-21T13:39:56;27.30;;;24.77;;
11531;SDS011;5822;51.000;5.874;2022-07-21T13:42:21;30.50;;;25.83;;
11531;SDS011;5822;51.000;5.874;2022-07-21T13:44:47;25.27;;;23.07;;
11531;SDS011;5822;51.000;5.874;2022-07-21T13:47:13;24.80;;;22.67;;
11531;SDS011;5822;51.000;5.874;2022-07-21T13:49:38;24.37;;;22.27;;
11531;SDS011;5822;51.000;5.874;2022-07-21T13:52:04;24.13;;;22.10;;
11531;SDS011;5822;51.000;5.874;2022-07-21T13:54:29;24.77;;;22.67;;
11531;SDS011;5822;51.000;5.874;2022-07-21T13:56:55;26.50;;;24.30;;
11531;SDS011;5822;51.000;5.874;2022-07-21T13:59:22;27.83;;;23.20;;
11531;SDS011;5822;51.000;5.874;2022-07-21T14:01:48;24.43;;;22.23;;
11531;SDS011;5822;51.000;5.874;2022-07-21T14:04:14;24.77;;;22.67;;
11531;SDS011;5822;51.000;5.874;2022-07-21T14:06:39;25.40;;;23.17;;
11531;SDS011;5822;51.000;5.874;2022-07-21T14:09:05;24.53;;;22.53;;
11531;SDS011;5822;51.000;5.874;2022-07-21T14:11:31;23.30;;;21.37;;
11531;SDS011;5822;51.000;5.874;2022-07-21T14:13:57;24.43;;;22.30;;
11531;SDS011;5822;51.000;5.874;2022-07-21T14:16:22;25.43;;;23.00;;
11531;SDS011;5822;51.000;5.874;2022-07-21T14:18:48;24.97;;;22.83;;
11531;SDS011;5822;51.000;5.874;2022-07-21T14:21:14;25.10;;;22.80;;
11531;SDS011;5822;51.000;5.874;2022-07-21T14:23:40;25.77;;;23.13;;
11531;SDS011;5822;51.000;5.874;2022-07-21T14:26:05;25.73;;;23.53;;
11531;SDS011;5822;51.000;5.874;2022-07-21T14:28:31;28.30;;;25.50;;
11531;SDS011;5822;51.000;5.874;2022-07-21T14:30:57;28.17;;;25.57;;
11531;SDS011;5822;51.000;5.874;2022-07-21T14:33:23;44.73;;;26.40;;
11531;SDS011;5822;51.000;5.874;2022-07-21T14:35:49;26.53;;;24.13;;
11531;SDS011;5822;51.000;5.874;2022-07-21T14:38:14;27.23;;;24.93;;
11531;SDS011;5822;51.000;5.874;2022-07-21T14:40:41;27.73;;;25.33;;
11531;SDS011;5822;51.000;5.874;2022-07-21T14:43:06;27.53;;;25.13;;
11531;SDS011;5822;51.000;5.874;2022-07-21T14:45:32;28.60;;;25.57;;
11531;SDS011;5822;51.000;5.874;2022-07-21T14:47:58;27.07;;;24.73;;
11531;SDS011;5822;51.000;5.874;2022-07-21T14:50:24;26.37;;;24.03;;
11531;SDS011;5822;51.000;5.874;2022-07-21T14:52:51;26.30;;;24.00;;
11531;SDS011;5822;51.000;5.874;2022-07-21T14:55:17;26.30;;;24.00;;
11531;SDS011;5822;51.000;5.874;2022-07-21T14:57:45;26.37;;;24.07;;
11531;SDS011;5822;51.000;5.874;2022-07-21T15:00:11;25.90;;;23.80;;
11531;SDS011;5822;51.000;5.874;2022-07-21T15:02:37;26.27;;;24.07;;
11531;SDS011;5822;51.000;5.874;2022-07-21T15:05:02;26.70;;;24.40;;
11531;SDS011;5822;51.000;5.874;2022-07-21T15:07:29;26.80;;;24.60;;
11531;SDS011;5822;51.000;5.874;2022-07-21T15:09:55;27.37;;;25.07;;
11531;SDS011;5822;51.000;5.874;2022-07-21T15:12:23;27.03;;;24.63;;
11531;SDS011;5822;51.000;5.874;2022-07-21T15:14:49;25.83;;;23.63;;